• Join FlightAware (Why Join?)
  • Login
  • US Flag 
04:48AM EST


 

Airport Tracker/Info


-or-


 

Live Flight TrackerFlight Track Log ✈ TAM3030 ✈ 28-Aug-2013 ✈ SBRJ / SDU - SBBR / BSB

Flight Track Log - Related Links

Times and Time Zones

All times are in EDT time to prevent confusion due to time zone crossing. See the TAM3030 flight status page for this flight to view local times or setup timezone preferences in your user account.

Time Position Orientation Groundspeed Altitude Reporting Facility
EDT Latitude Longitude Course Direction KTS MPH feet Rate Location/Type
08:08PM -20.4290 -44.8932 327° Northwest  Level Estimated
08:09PM -20.3401 -44.9540 327° Northwest  Level Estimated
08:10PM -20.2511 -45.0146 327° Northwest  Level Estimated
08:11PM -20.1621 -45.0752 327° Northwest  Level Estimated
08:12PM -20.0731 -45.1357 327° Northwest  Level Estimated
08:13PM -19.9841 -45.1962 327° Northwest  Level Estimated
08:14PM -19.8951 -45.2565 327° Northwest  Level Estimated
08:15PM -19.8060 -45.3168 327° Northwest  Level Estimated
08:16PM -19.7169 -45.3771 328° Northwest  Level Estimated
08:17PM -19.6278 -45.4372 328° Northwest  Level Estimated
08:18PM -19.5387 -45.4973 328° Northwest  Level Estimated
08:19PM -19.4495 -45.5574 328° Northwest  Level Estimated
08:20PM -19.3603 -45.6174 328° Northwest  Level Estimated
08:21PM -19.2711 -45.6773 328° Northwest  Level Estimated
08:22PM -19.1819 -45.7371 328° Northwest  Level Estimated
08:23PM -19.0927 -45.7969 328° Northwest  Level Estimated
08:24PM -19.0035 -45.8566 328° Northwest  Level Estimated
08:25PM -18.9142 -45.9162 328° Northwest  Level Estimated
08:26PM -18.8249 -45.9758 328° Northwest  Level Estimated
08:27PM -18.7356 -46.0353 328° Northwest  Level Estimated
08:28PM -18.6463 -46.0948 328° Northwest  Level Estimated
08:29PM -18.5569 -46.1542 328° Northwest  Level Estimated
08:30PM -18.4676 -46.2135 328° Northwest  Level Estimated
08:31PM -18.3782 -46.2728 328° Northwest  Level Estimated
08:32PM -18.2888 -46.3320 328° Northwest  Level Estimated
08:33PM -18.1994 -46.3912 328° Northwest  Level Estimated
08:34PM -18.1100 -46.4502 328° Northwest  Level Estimated
08:35PM -18.0205 -46.5093 328° Northwest  Level Estimated
08:36PM -17.9310 -46.5682 328° Northwest  Level Estimated
08:37PM -17.8416 -46.6272 328° Northwest  Level Estimated
08:38PM -17.7521 -46.6860 328° Northwest  Level Estimated
08:39PM -17.6625 -46.7448 328° Northwest  Level Estimated
08:40PM -17.5730 -46.8035 328° Northwest  Level Estimated
08:41PM -17.4834 -46.8622 328° Northwest  Level Estimated
08:42PM -17.3939 -46.9208 328° Northwest  Level Estimated
08:43PM -17.3043 -46.9794 328° Northwest  Level Estimated
08:44PM -17.2147 -47.0379 328° Northwest  Level Estimated
08:45PM -17.1250 -47.0963 328° Northwest  Level Estimated
08:46PM -17.0354 -47.1547 328° Northwest  Level Estimated
08:47PM -16.9457 -47.2130 328° Northwest  Level Estimated
08:48PM -16.8561 -47.2713 328° Northwest  Level Estimated
08:49PM -16.7664 -47.3295 328° Northwest  Level Estimated
08:50PM -16.6767 -47.3877 328° Northwest  Level Estimated
08:51PM -16.5870 -47.4458 328° Northwest  Level Estimated
08:52PM -16.4972 -47.5039 328° Northwest  Level Estimated
08:53PM -16.4075 -47.5619 328° Northwest  Level Estimated
08:54PM -16.3177 -47.6198 328° Northwest  Level Estimated
08:55PM -16.2279 -47.6777 328° Northwest  Level Estimated
08:56PM -16.1381 -47.7356 328° Northwest  Level Estimated
08:57PM -16.0483 -47.7934 328° Northwest  Level Estimated
08:58PM -15.9585 -47.8511 328° Northwest  Level Estimated
08:59PM -15.8686 -47.9088 328° Northwest  Level Estimated
09:00PM -15.8626 -47.9127 328° Northwest  Level Estimated
09:01PM -15.8626 -47.9127 128° Southeast  Level Estimated
09:02PM -15.8626 -47.9127 128° Southeast  Level Estimated
09:03PM -15.8626 -47.9127 128° Southeast  Level Estimated
09:04PM -15.8626 -47.9127 128° Southeast  Level Estimated
09:05PM -15.8626 -47.9127 128° Southeast  Level Estimated
09:06PM -15.8626 -47.9127 128° Southeast  Level Estimated
09:07PM -15.8626 -47.9127 128° Southeast  Level Estimated
09:08PM -15.8626 -47.9127 128° Southeast  Level Estimated
09:09PM -15.8626 -47.9127 128° Southeast  Level Estimated
09:10PM -15.8626 -47.9127 128° Southeast  Level Estimated
09:11PM -15.8626 -47.9127 128° Southeast  Level Estimated